sensor_id;sensor_type;location;lat;lon;timestamp;P1;durP1;ratioP1;P2;durP2;ratioP2
50853;SDS011;44154;45.506;-122.806;2023-03-01T00:01:59;3.70;;;0.25;;
50853;SDS011;44154;45.506;-122.806;2023-03-01T00:04:26;0.93;;;0.20;;
50853;SDS011;44154;45.506;-122.806;2023-03-01T00:06:53;2.60;;;0.30;;
50853;SDS011;44154;45.506;-122.806;2023-03-01T00:09:19;5.68;;;0.73;;
50853;SDS011;44154;45.506;-122.806;2023-03-01T00:11:46;0.82;;;0.25;;
50853;SDS011;44154;45.506;-122.806;2023-03-01T00:14:12;1.02;;;0.38;;
50853;SDS011;44154;45.506;-122.806;2023-03-01T00:16:39;1.33;;;0.20;;
50853;SDS011;44154;45.506;-122.806;2023-03-01T00:19:07;1.25;;;0.20;;
50853;SDS011;44154;45.506;-122.806;2023-03-01T00:21:36;1.45;;;0.20;;
50853;SDS011;44154;45.506;-122.806;2023-03-01T00:24:02;1.17;;;0.20;;
50853;SDS011;44154;45.506;-122.806;2023-03-01T00:26:29;0.50;;;0.20;;
50853;SDS011;44154;45.506;-122.806;2023-03-01T00:28:56;1.00;;;0.20;;
50853;SDS011;44154;45.506;-122.806;2023-03-01T00:31:24;2.08;;;0.20;;
50853;SDS011;44154;45.506;-122.806;2023-03-01T00:34:01;1.38;;;0.20;;
50853;SDS011;44154;45.506;-122.806;2023-03-01T00:36:29;2.00;;;0.20;;
50853;SDS011;44154;45.506;-122.806;2023-03-01T00:38:58;1.45;;;0.20;;
50853;SDS011;44154;45.506;-122.806;2023-03-01T00:41:24;0.82;;;0.20;;
50853;SDS011;44154;45.506;-122.806;2023-03-01T00:43:53;0.45;;;0.20;;
50853;SDS011;44154;45.506;-122.806;2023-03-01T00:46:21;0.20;;;0.10;;
50853;SDS011;44154;45.506;-122.806;2023-03-01T00:48:49;1.08;;;0.98;;
50853;SDS011;44154;45.506;-122.806;2023-03-01T00:53:42;1.05;;;0.20;;
50853;SDS011;44154;45.506;-122.806;2023-03-01T00:56:10;0.52;;;0.10;;
50853;SDS011;44154;45.506;-122.806;2023-03-01T00:58:38;0.50;;;0.20;;
50853;SDS011;44154;45.506;-122.806;2023-03-01T01:01:12;0.32;;;0.10;;
50853;SDS011;44154;45.506;-122.806;2023-03-01T01:06:23;0.45;;;0.10;;
50853;SDS011;44154;45.506;-122.806;2023-03-01T01:08:52;0.20;;;0.10;;
50853;SDS011;44154;45.506;-122.806;2023-03-01T01:11:19;0.10;;;0.10;;
50853;SDS011;44154;45.506;-122.806;2023-03-01T01:13:46;0.17;;;0.10;;
50853;SDS011;44154;45.506;-122.806;2023-03-01T01:16:14;0.38;;;0.10;;
50853;SDS011;44154;45.506;-122.806;2023-03-01T01:18:41;0.10;;;0.10;;
50853;SDS011;44154;45.506;-122.806;2023-03-01T01:21:09;0.20;;;0.10;;
50853;SDS011;44154;45.506;-122.806;2023-03-01T01:23:40;0.10;;;0.10;;
50853;SDS011;44154;45.506;-122.806;2023-03-01T01:26:12;0.10;;;0.10;;
50853;SDS011;44154;45.506;-122.806;2023-03-01T01:28:40;0.17;;;0.10;;
50853;SDS011;44154;45.506;-122.806;2023-03-01T01:31:06;0.13;;;0.10;;
50853;SDS011;44154;45.506;-122.806;2023-03-01T01:33:32;0.30;;;0.10;;
50853;SDS011;44154;45.506;-122.806;2023-03-01T01:35:59;1.27;;;0.10;;
50853;SDS011;44154;45.506;-122.806;2023-03-01T01:38:25;1.33;;;0.13;;
50853;SDS011;44154;45.506;-122.806;2023-03-01T01:40:51;2.05;;;0.10;;
50853;SDS011;44154;45.506;-122.806;2023-03-01T01:43:19;1.63;;;0.30;;
50853;SDS011;44154;45.506;-122.806;2023-03-01T01:45:52;2.60;;;0.30;;
50853;SDS011;44154;45.506;-122.806;2023-03-01T01:48:27;1.80;;;0.22;;
50853;SDS011;44154;45.506;-122.806;2023-03-01T01:51:05;1.17;;;0.10;;
50853;SDS011;44154;45.506;-122.806;2023-03-01T01:53:36;2.05;;;0.20;;
50853;SDS011;44154;45.506;-122.806;2023-03-01T01:56:03;3.35;;;0.50;;
50853;SDS011;44154;45.506;-122.806;2023-03-01T01:58:34;7.97;;;0.60;;
50853;SDS011;44154;45.506;-122.806;2023-03-01T02:01:01;4.22;;;0.52;;
50853;SDS011;44154;45.506;-122.806;2023-03-01T02:03:30;3.65;;;0.68;;
50853;SDS011;44154;45.506;-122.806;2023-03-01T02:08:47;1.92;;;0.30;;
50853;SDS011;44154;45.506;-122.806;2023-03-01T02:11:18;1.77;;;0.30;;
50853;SDS011;44154;45.506;-122.806;2023-03-01T02:13:47;2.30;;;0.20;;
50853;SDS011;44154;45.506;-122.806;2023-03-01T02:16:14;2.83;;;0.30;;
50853;SDS011;44154;45.506;-122.806;2023-03-01T02:18:41;2.78;;;0.22;;
50853;SDS011;44154;45.506;-122.806;2023-03-01T02:27:19;3.15;;;0.68;;
50853;SDS011;44154;45.506;-122.806;2023-03-01T02:29:51;4.32;;;0.60;;
50853;SDS011;44154;45.506;-122.806;2023-03-01T02:32:18;4.97;;;0.70;;
50853;SDS011;44154;45.506;-122.806;2023-03-01T02:34:53;3.42;;;0.30;;
50853;SDS011;44154;45.506;-122.806;2023-03-01T02:37:21;6.18;;;0.40;;
50853;SDS011;44154;45.506;-122.806;2023-03-01T02:40:08;3.75;;;0.47;;
50853;SDS011;44154;45.506;-122.806;2023-03-01T02:42:42;1.73;;;0.47;;
50853;SDS011;44154;45.506;-122.806;2023-03-01T02:45:15;1.30;;;0.35;;
50853;SDS011;44154;45.506;-122.806;2023-03-01T02:47:41;2.97;;;0.40;;
50853;SDS011;44154;45.506;-122.806;2023-03-01T02:52:53;1.33;;;0.30;;
50853;SDS011;44154;45.506;-122.806;2023-03-01T02:55:41;3.47;;;0.30;;
50853;SDS011;44154;45.506;-122.806;2023-03-01T02:58:07;2.05;;;0.40;;
50853;SDS011;44154;45.506;-122.806;2023-03-01T03:00:36;0.63;;;0.30;;
50853;SDS011;44154;45.506;-122.806;2023-03-01T03:03:19;3.10;;;0.50;;
50853;SDS011;44154;45.506;-122.806;2023-03-01T03:05:46;0.95;;;0.20;;
50853;SDS011;44154;45.506;-122.806;2023-03-01T03:08:13;1.67;;;0.50;;
50853;SDS011;44154;45.506;-122.806;2023-03-01T03:10:49;0.98;;;0.20;;
50853;SDS011;44154;45.506;-122.806;2023-03-01T03:13:15;1.42;;;0.15;;
50853;SDS011;44154;45.506;-122.806;2023-03-01T03:15:42;1.48;;;0.10;;
50853;SDS011;44154;45.506;-122.806;2023-03-01T03:18:10;0.77;;;0.20;;
50853;SDS011;44154;45.506;-122.806;2023-03-01T03:20:38;0.60;;;0.30;;
50853;SDS011;44154;45.506;-122.806;2023-03-01T03:23:06;1.10;;;0.20;;
50853;SDS011;44154;45.506;-122.806;2023-03-01T03:25:32;0.65;;;0.20;;
50853;SDS011;44154;45.506;-122.806;2023-03-01T03:28:03;6.32;;;0.90;;
50853;SDS011;44154;45.506;-122.806;2023-03-01T03:30:35;2.37;;;0.30;;
50853;SDS011;44154;45.506;-122.806;2023-03-01T03:33:04;1.40;;;0.30;;
50853;SDS011;44154;45.506;-122.806;2023-03-01T03:35:32;3.40;;;0.47;;
50853;SDS011;44154;45.506;-122.806;2023-03-01T03:38:01;2.13;;;0.20;;
50853;SDS011;44154;45.506;-122.806;2023-03-01T03:43:30;1.42;;;0.82;;
50853;SDS011;44154;45.506;-122.806;2023-03-01T03:45:57;0.65;;;0.20;;
50853;SDS011;44154;45.506;-122.806;2023-03-01T03:48:24;0.77;;;0.30;;
50853;SDS011;44154;45.506;-122.806;2023-03-01T03:50:52;2.08;;;0.43;;
50853;SDS011;44154;45.506;-122.806;2023-03-01T03:53:20;0.73;;;0.40;;
50853;SDS011;44154;45.506;-122.806;2023-03-01T03:55:47;3.72;;;0.40;;
50853;SDS011;44154;45.506;-122.806;2023-03-01T03:58:17;0.95;;;0.30;;
50853;SDS011;44154;45.506;-122.806;2023-03-01T04:00:45;1.95;;;0.30;;
50853;SDS011;44154;45.506;-122.806;2023-03-01T04:03:13;1.92;;;0.55;;
50853;SDS011;44154;45.506;-122.806;2023-03-01T04:05:40;1.73;;;0.30;;
50853;SDS011;44154;45.506;-122.806;2023-03-01T04:08:07;2.45;;;0.32;;
50853;SDS011;44154;45.506;-122.806;2023-03-01T04:10:35;2.50;;;0.40;;
50853;SDS011;44154;45.506;-122.806;2023-03-01T04:13:03;1.08;;;0.40;;
50853;SDS011;44154;45.506;-122.806;2023-03-01T04:15:30;3.42;;;0.40;;
50853;SDS011;44154;45.506;-122.806;2023-03-01T04:17:58;0.98;;;0.20;;
50853;SDS011;44154;45.506;-122.806;2023-03-01T04:20:26;2.08;;;0.40;;
50853;SDS011;44154;45.506;-122.806;2023-03-01T04:22:57;0.93;;;0.40;;
50853;SDS011;44154;45.506;-122.806;2023-03-01T04:26:08;0.82;;;0.40;;
50853;SDS011;44154;45.506;-122.806;2023-03-01T04:28:32;2.30;;;0.40;;
50853;SDS011;44154;45.506;-122.806;2023-03-01T04:31:04;2.45;;;0.40;;
50853;SDS011;44154;45.506;-122.806;2023-03-01T04:33:41;2.58;;;0.90;;
50853;SDS011;44154;45.506;-122.806;2023-03-01T04:36:10;5.95;;;1.90;;
50853;SDS011;44154;45.506;-122.806;2023-03-01T04:38:37;3.20;;;1.73;;
50853;SDS011;44154;45.506;-122.806;2023-03-01T04:41:05;2.38;;;1.00;;
50853;SDS011;44154;45.506;-122.806;2023-03-01T04:43:35;0.95;;;0.50;;
50853;SDS011;44154;45.506;-122.806;2023-03-01T04:46:06;1.88;;;1.05;;
50853;SDS011;44154;45.506;-122.806;2023-03-01T04:48:35;2.88;;;0.88;;
50853;SDS011;44154;45.506;-122.806;2023-03-01T04:51:02;1.70;;;0.80;;
50853;SDS011;44154;45.506;-122.806;2023-03-01T04:53:29;1.83;;;1.00;;
50853;SDS011;44154;45.506;-122.806;2023-03-01T04:55:56;2.88;;;1.08;;
50853;SDS011;44154;45.506;-122.806;2023-03-01T04:58:26;0.90;;;0.70;;
50853;SDS011;44154;45.506;-122.806;2023-03-01T05:00:52;3.88;;;2.85;;
50853;SDS011;44154;45.506;-122.806;2023-03-01T05:03:19;5.28;;;4.30;;
50853;SDS011;44154;45.506;-122.806;2023-03-01T05:05:47;4.60;;;3.50;;
50853;SDS011;44154;45.506;-122.806;2023-03-01T05:08:15;3.65;;;2.60;;
50853;SDS011;44154;45.506;-122.806;2023-03-01T05:10:49;2.50;;;1.73;;
50853;SDS011;44154;45.506;-122.806;2023-03-01T05:13:17;2.22;;;1.80;;
50853;SDS011;44154;45.506;-122.806;2023-03-01T05:15:48;2.45;;;1.70;;
50853;SDS011;44154;45.506;-122.806;2023-03-01T05:18:23;2.97;;;2.17;;
50853;SDS011;44154;45.506;-122.806;2023-03-01T05:20:51;2.70;;;2.10;;
50853;SDS011;44154;45.506;-122.806;2023-03-01T05:23:21;3.35;;;1.88;;
50853;SDS011;44154;45.506;-122.806;2023-03-01T05:25:48;2.85;;;2.33;;
50853;SDS011;44154;45.506;-122.806;2023-03-01T05:28:17;7.32;;;5.93;;
50853;SDS011;44154;45.506;-122.806;2023-03-01T05:30:45;6.85;;;6.15;;
50853;SDS011;44154;45.506;-122.806;2023-03-01T05:33:12;5.20;;;3.85;;
50853;SDS011;44154;45.506;-122.806;2023-03-01T05:35:41;3.65;;;2.70;;
50853;SDS011;44154;45.506;-122.806;2023-03-01T05:38:08;4.45;;;2.70;;
50853;SDS011;44154;45.506;-122.806;2023-03-01T05:40:38;3.33;;;2.70;;
50853;SDS011;44154;45.506;-122.806;2023-03-01T05:43:06;3.70;;;3.10;;
50853;SDS011;44154;45.506;-122.806;2023-03-01T05:45:33;4.38;;;3.17;;
50853;SDS011;44154;45.506;-122.806;2023-03-01T05:48:03;4.28;;;3.03;;
50853;SDS011;44154;45.506;-122.806;2023-03-01T05:50:32;3.63;;;3.03;;
50853;SDS011;44154;45.506;-122.806;2023-03-01T05:55:34;8.85;;;7.95;;
50853;SDS011;44154;45.506;-122.806;2023-03-01T05:58:02;6.53;;;5.72;;
50853;SDS011;44154;45.506;-122.806;2023-03-01T06:00:30;5.13;;;4.13;;
50853;SDS011;44154;45.506;-122.806;2023-03-01T06:02:57;4.18;;;3.70;;
50853;SDS011;44154;45.506;-122.806;2023-03-01T06:05:24;4.53;;;3.72;;
50853;SDS011;44154;45.506;-122.806;2023-03-01T06:07:52;4.50;;;3.72;;
50853;SDS011;44154;45.506;-122.806;2023-03-01T06:10:19;6.22;;;4.72;;
50853;SDS011;44154;45.506;-122.806;2023-03-01T06:12:47;5.07;;;4.18;;
50853;SDS011;44154;45.506;-122.806;2023-03-01T06:15:14;4.72;;;3.78;;
50853;SDS011;44154;45.506;-122.806;2023-03-01T06:17:42;5.60;;;4.40;;
50853;SDS011;44154;45.506;-122.806;2023-03-01T06:20:11;5.57;;;3.58;;
50853;SDS011;44154;45.506;-122.806;2023-03-01T06:22:43;10.93;;;9.82;;
50853;SDS011;44154;45.506;-122.806;2023-03-01T06:25:10;11.75;;;9.88;;
50853;SDS011;44154;45.506;-122.806;2023-03-01T06:27:38;9.75;;;8.75;;
50853;SDS011;44154;45.506;-122.806;2023-03-01T06:30:05;6.30;;;5.47;;
50853;SDS011;44154;45.506;-122.806;2023-03-01T06:32:33;4.85;;;4.15;;
50853;SDS011;44154;45.506;-122.806;2023-03-01T06:34:59;5.53;;;4.05;;
50853;SDS011;44154;45.506;-122.806;2023-03-01T06:37:25;5.13;;;3.90;;
50853;SDS011;44154;45.506;-122.806;2023-03-01T06:39:52;8.48;;;5.00;;
50853;SDS011;44154;45.506;-122.806;2023-03-01T06:42:18;7.57;;;4.60;;
50853;SDS011;44154;45.506;-122.806;2023-03-01T06:44:44;6.25;;;4.40;;
50853;SDS011;44154;45.506;-122.806;2023-03-01T06:47:11;5.80;;;4.35;;
50853;SDS011;44154;45.506;-122.806;2023-03-01T06:49:37;5.00;;;4.40;;
50853;SDS011;44154;45.506;-122.806;2023-03-01T06:52:03;6.07;;;5.00;;
50853;SDS011;44154;45.506;-122.806;2023-03-01T06:54:29;13.02;;;11.73;;
50853;SDS011;44154;45.506;-122.806;2023-03-01T06:56:55;11.20;;;10.07;;
50853;SDS011;44154;45.506;-122.806;2023-03-01T06:59:22;7.05;;;5.50;;
50853;SDS011;44154;45.506;-122.806;2023-03-01T07:01:48;8.98;;;8.07;;
50853;SDS011;44154;45.506;-122.806;2023-03-01T07:04:16;6.88;;;6.15;;
50853;SDS011;44154;45.506;-122.806;2023-03-01T07:06:42;6.55;;;5.75;;
50853;SDS011;44154;45.506;-122.806;2023-03-01T07:09:08;6.72;;;5.32;;
50853;SDS011;44154;45.506;-122.806;2023-03-01T07:11:34;5.78;;;5.18;;
50853;SDS011;44154;45.506;-122.806;2023-03-01T07:14:00;6.47;;;5.88;;
50853;SDS011;44154;45.506;-122.806;2023-03-01T07:16:26;7.25;;;6.50;;
50853;SDS011;44154;45.506;-122.806;2023-03-01T07:18:52;6.97;;;5.75;;
50853;SDS011;44154;45.506;-122.806;2023-03-01T07:21:18;6.97;;;6.25;;
50853;SDS011;44154;45.506;-122.806;2023-03-01T07:23:47;6.72;;;6.03;;
50853;SDS011;44154;45.506;-122.806;2023-03-01T07:26:14;6.53;;;5.82;;
50853;SDS011;44154;45.506;-122.806;2023-03-01T07:28:40;10.25;;;5.60;;
50853;SDS011;44154;45.506;-122.806;2023-03-01T07:31:06;8.63;;;5.93;;
50853;SDS011;44154;45.506;-122.806;2023-03-01T07:33:32;9.70;;;5.88;;
50853;SDS011;44154;45.506;-122.806;2023-03-01T07:35:59;8.90;;;5.57;;
50853;SDS011;44154;45.506;-122.806;2023-03-01T07:38:27;9.20;;;6.40;;
50853;SDS011;44154;45.506;-122.806;2023-03-01T07:40:54;11.38;;;10.18;;
50853;SDS011;44154;45.506;-122.806;2023-03-01T07:43:27;15.88;;;14.38;;
50853;SDS011;44154;45.506;-122.806;2023-03-01T07:45:54;10.38;;;9.38;;
50853;SDS011;44154;45.506;-122.806;2023-03-01T07:48:20;12.15;;;10.95;;
50853;SDS011;44154;45.506;-122.806;2023-03-01T07:50:46;12.15;;;11.05;;
50853;SDS011;44154;45.506;-122.806;2023-03-01T07:53:12;11.35;;;10.25;;
50853;SDS011;44154;45.506;-122.806;2023-03-01T07:55:38;11.88;;;9.73;;
50853;SDS011;44154;45.506;-122.806;2023-03-01T07:58:04;10.82;;;9.25;;
50853;SDS011;44154;45.506;-122.806;2023-03-01T08:00:31;12.13;;;10.35;;
50853;SDS011;44154;45.506;-122.806;2023-03-01T08:03:00;8.95;;;8.05;;
50853;SDS011;44154;45.506;-122.806;2023-03-01T08:05:27;9.25;;;8.35;;
50853;SDS011;44154;45.506;-122.806;2023-03-01T08:07:53;10.10;;;9.07;;
50853;SDS011;44154;45.506;-122.806;2023-03-01T08:10:20;9.05;;;8.15;;
50853;SDS011;44154;45.506;-122.806;2023-03-01T08:12:46;18.35;;;16.55;;
50853;SDS011;44154;45.506;-122.806;2023-03-01T08:15:12;14.00;;;12.65;;
50853;SDS011;44154;45.506;-122.806;2023-03-01T08:17:38;10.13;;;9.13;;
50853;SDS011;44154;45.506;-122.806;2023-03-01T08:20:05;14.57;;;13.27;;
50853;SDS011;44154;45.506;-122.806;2023-03-01T08:22:32;12.82;;;11.73;;
50853;SDS011;44154;45.506;-122.806;2023-03-01T08:24:58;13.52;;;12.23;;
50853;SDS011;44154;45.506;-122.806;2023-03-01T08:27:24;10.80;;;9.80;;
50853;SDS011;44154;45.506;-122.806;2023-03-01T08:29:50;14.02;;;12.80;;
50853;SDS011;44154;45.506;-122.806;2023-03-01T08:32:16;14.90;;;13.50;;
50853;SDS011;44154;45.506;-122.806;2023-03-01T08:34:45;11.68;;;10.57;;
50853;SDS011;44154;45.506;-122.806;2023-03-01T08:37:12;11.73;;;10.63;;
50853;SDS011;44154;45.506;-122.806;2023-03-01T08:39:38;15.38;;;13.88;;
50853;SDS011;44154;45.506;-122.806;2023-03-01T08:42:05;20.13;;;18.25;;
50853;SDS011;44154;45.506;-122.806;2023-03-01T08:44:31;20.40;;;18.50;;
50853;SDS011;44154;45.506;-122.806;2023-03-01T08:46:57;14.68;;;13.32;;
50853;SDS011;44154;45.506;-122.806;2023-03-01T08:49:23;14.27;;;12.98;;
50853;SDS011;44154;45.506;-122.806;2023-03-01T08:51:49;12.75;;;11.63;;
50853;SDS011;44154;45.506;-122.806;2023-03-01T08:54:19;12.98;;;11.82;;
50853;SDS011;44154;45.506;-122.806;2023-03-01T08:56:46;11.38;;;10.15;;
50853;SDS011;44154;45.506;-122.806;2023-03-01T08:59:14;9.80;;;8.88;;
50853;SDS011;44154;45.506;-122.806;2023-03-01T09:01:41;10.77;;;9.23;;
50853;SDS011;44154;45.506;-122.806;2023-03-01T09:04:10;11.00;;;9.93;;
50853;SDS011;44154;45.506;-122.806;2023-03-01T09:06:37;10.40;;;9.40;;
50853;SDS011;44154;45.506;-122.806;2023-03-01T09:09:04;10.25;;;9.23;;
50853;SDS011;44154;45.506;-122.806;2023-03-01T09:11:31;21.08;;;16.98;;
50853;SDS011;44154;45.506;-122.806;2023-03-01T09:13:58;18.98;;;17.17;;
50853;SDS011;44154;45.506;-122.806;2023-03-01T09:16:24;13.13;;;11.93;;
50853;SDS011;44154;45.506;-122.806;2023-03-01T09:18:52;11.32;;;10.23;;
50853;SDS011;44154;45.506;-122.806;2023-03-01T09:21:20;10.05;;;9.15;;
50853;SDS011;44154;45.506;-122.806;2023-03-01T09:23:48;9.88;;;8.98;;
50853;SDS011;44154;45.506;-122.806;2023-03-01T09:26:19;9.88;;;8.98;;
50853;SDS011;44154;45.506;-122.806;2023-03-01T09:28:50;9.88;;;8.98;;
50853;SDS011;44154;45.506;-122.806;2023-03-01T09:31:19;10.75;;;9.65;;
50853;SDS011;44154;45.506;-122.806;2023-03-01T09:33:47;10.25;;;9.35;;
50853;SDS011;44154;45.506;-122.806;2023-03-01T09:36:16;9.95;;;9.05;;
50853;SDS011;44154;45.506;-122.806;2023-03-01T09:38:44;10.23;;;9.30;;
50853;SDS011;44154;45.506;-122.806;2023-03-01T09:43:44;14.15;;;12.95;;
50853;SDS011;44154;45.506;-122.806;2023-03-01T09:46:32;16.50;;;15.00;;
50853;SDS011;44154;45.506;-122.806;2023-03-01T09:49:09;13.77;;;12.48;;
50853;SDS011;44154;45.506;-122.806;2023-03-01T09:54:44;9.80;;;8.80;;
50853;SDS011;44154;45.506;-122.806;2023-03-01T09:57:18;10.30;;;9.30;;
50853;SDS011;44154;45.506;-122.806;2023-03-01T10:00:03;10.35;;;9.35;;
50853;SDS011;44154;45.506;-122.806;2023-03-01T10:02:47;9.88;;;8.98;;
50853;SDS011;44154;45.506;-122.806;2023-03-01T10:05:35;10.90;;;9.82;;
50853;SDS011;44154;45.506;-122.806;2023-03-01T10:08:42;9.93;;;9.02;;
50853;SDS011;44154;45.506;-122.806;2023-03-01T10:11:35;10.25;;;9.35;;
50853;SDS011;44154;45.506;-122.806;2023-03-01T10:19:11;16.98;;;15.38;;
50853;SDS011;44154;45.506;-122.806;2023-03-01T10:21:43;13.35;;;12.13;;
50853;SDS011;44154;45.506;-122.806;2023-03-01T10:24:15;11.32;;;10.32;;
50853;SDS011;44154;45.506;-122.806;2023-03-01T10:29:54;26.83;;;24.73;;
50853;SDS011;44154;45.506;-122.806;2023-03-01T10:32:17;22.23;;;20.40;;
50853;SDS011;44154;45.506;-122.806;2023-03-01T10:34:44;21.17;;;19.48;;
50853;SDS011;44154;45.506;-122.806;2023-03-01T10:37:11;20.33;;;18.55;;
50853;SDS011;44154;45.506;-122.806;2023-03-01T10:40:00;25.10;;;22.90;;
50853;SDS011;44154;45.506;-122.806;2023-03-01T10:42:39;21.73;;;19.90;;
50853;SDS011;44154;45.506;-122.806;2023-03-01T10:47:43;16.70;;;15.30;;
50853;SDS011;44154;45.506;-122.806;2023-03-01T10:50:18;16.55;;;15.15;;
50853;SDS011;44154;45.506;-122.806;2023-03-01T10:53:00;15.70;;;14.40;;
50853;SDS011;44154;45.506;-122.806;2023-03-01T10:55:36;16.88;;;15.48;;
50853;SDS011;44154;45.506;-122.806;2023-03-01T10:58:08;16.25;;;14.95;;
50853;SDS011;44154;45.506;-122.806;2023-03-01T11:03:33;19.33;;;17.73;;
50853;SDS011;44154;45.506;-122.806;2023-03-01T11:13:51;15.32;;;14.02;;
50853;SDS011;44154;45.506;-122.806;2023-03-01T11:16:28;14.85;;;13.55;;
50853;SDS011;44154;45.506;-122.806;2023-03-01T11:21:41;14.45;;;13.25;;
50853;SDS011;44154;45.506;-122.806;2023-03-01T11:24:29;14.32;;;13.07;;
50853;SDS011;44154;45.506;-122.806;2023-03-01T11:27:03;17.20;;;15.70;;
50853;SDS011;44154;45.506;-122.806;2023-03-01T11:29:45;17.30;;;15.80;;
50853;SDS011;44154;45.506;-122.806;2023-03-01T11:32:16;15.93;;;14.52;;
50853;SDS011;44154;45.506;-122.806;2023-03-01T11:40:27;12.77;;;11.68;;
50853;SDS011;44154;45.506;-122.806;2023-03-01T11:43:03;12.70;;;11.60;;
50853;SDS011;44154;45.506;-122.806;2023-03-01T11:46:24;13.15;;;11.98;;
50853;SDS011;44154;45.506;-122.806;2023-03-01T11:50:51;13.30;;;12.10;;
50853;SDS011;44154;45.506;-122.806;2023-03-01T11:53:23;17.00;;;15.45;;
50853;SDS011;44154;45.506;-122.806;2023-03-01T12:07:40;12.15;;;11.05;;
50853;SDS011;44154;45.506;-122.806;2023-03-01T12:10:36;11.48;;;10.48;;
50853;SDS011;44154;45.506;-122.806;2023-03-01T12:13:27;11.50;;;10.50;;
50853;SDS011;44154;45.506;-122.806;2023-03-01T12:32:40;11.10;;;10.10;;
50853;SDS011;44154;45.506;-122.806;2023-03-01T12:35:23;10.73;;;9.82;;
50853;SDS011;44154;45.506;-122.806;2023-03-01T12:38:06;11.75;;;10.70;;
50853;SDS011;44154;45.506;-122.806;2023-03-01T12:41:09;11.20;;;10.20;;
50853;SDS011;44154;45.506;-122.806;2023-03-01T12:46:28;14.93;;;13.52;;
50853;SDS011;44154;45.506;-122.806;2023-03-01T12:49:08;13.57;;;12.32;;
50853;SDS011;44154;45.506;-122.806;2023-03-01T12:51:35;11.75;;;10.60;;
50853;SDS011;44154;45.506;-122.806;2023-03-01T12:54:16;11.23;;;10.15;;
50853;SDS011;44154;45.506;-122.806;2023-03-01T12:56:53;11.30;;;10.30;;
50853;SDS011;44154;45.506;-122.806;2023-03-01T13:13:20;15.35;;;13.90;;
50853;SDS011;44154;45.506;-122.806;2023-03-01T13:15:47;12.48;;;11.38;;
50853;SDS011;44154;45.506;-122.806;2023-03-01T13:20:48;11.00;;;9.95;;
50853;SDS011;44154;45.506;-122.806;2023-03-01T13:31:09;12.75;;;11.55;;
50853;SDS011;44154;45.506;-122.806;2023-03-01T13:33:56;14.30;;;13.10;;
50853;SDS011;44154;45.506;-122.806;2023-03-01T13:41:52;8.10;;;7.40;;
50853;SDS011;44154;45.506;-122.806;2023-03-01T13:44:21;9.13;;;8.32;;
50853;SDS011;44154;45.506;-122.806;2023-03-01T13:46:59;9.03;;;8.23;;
50853;SDS011;44154;45.506;-122.806;2023-03-01T13:49:27;9.07;;;8.27;;
50853;SDS011;44154;45.506;-122.806;2023-03-01T13:51:56;9.90;;;9.00;;
50853;SDS011;44154;45.506;-122.806;2023-03-01T13:54:25;9.90;;;9.00;;
50853;SDS011;44154;45.506;-122.806;2023-03-01T13:56:56;12.40;;;11.30;;
50853;SDS011;44154;45.506;-122.806;2023-03-01T13:59:25;12.25;;;11.13;;
50853;SDS011;44154;45.506;-122.806;2023-03-01T14:01:55;12.52;;;11.32;;
50853;SDS011;44154;45.506;-122.806;2023-03-01T14:04:23;11.63;;;10.52;;
50853;SDS011;44154;45.506;-122.806;2023-03-01T14:06:51;9.43;;;8.52;;
50853;SDS011;44154;45.506;-122.806;2023-03-01T14:09:27;9.55;;;8.65;;
50853;SDS011;44154;45.506;-122.806;2023-03-01T14:20:15;9.80;;;8.90;;
50853;SDS011;44154;45.506;-122.806;2023-03-01T14:22:54;11.93;;;10.73;;
50853;SDS011;44154;45.506;-122.806;2023-03-01T14:25:24;11.70;;;10.60;;
50853;SDS011;44154;45.506;-122.806;2023-03-01T14:30:37;8.25;;;7.45;;
50853;SDS011;44154;45.506;-122.806;2023-03-01T14:33:28;9.40;;;8.50;;
50853;SDS011;44154;45.506;-122.806;2023-03-01T14:38:38;8.93;;;8.13;;
50853;SDS011;44154;45.506;-122.806;2023-03-01T14:41:18;8.80;;;8.05;;
50853;SDS011;44154;45.506;-122.806;2023-03-01T14:43:52;8.40;;;7.70;;
50853;SDS011;44154;45.506;-122.806;2023-03-01T14:46:40;11.32;;;10.20;;
50853;SDS011;44154;45.506;-122.806;2023-03-01T14:52:07;8.63;;;7.75;;
50853;SDS011;44154;45.506;-122.806;2023-03-01T14:54:43;9.10;;;8.20;;
50853;SDS011;44154;45.506;-122.806;2023-03-01T14:57:18;8.57;;;7.78;;
50853;SDS011;44154;45.506;-122.806;2023-03-01T14:59:49;8.50;;;7.63;;
50853;SDS011;44154;45.506;-122.806;2023-03-01T15:02:20;9.30;;;8.40;;
50853;SDS011;44154;45.506;-122.806;2023-03-01T15:04:51;9.82;;;8.82;;
50853;SDS011;44154;45.506;-122.806;2023-03-01T15:07:22;11.05;;;10.05;;
50853;SDS011;44154;45.506;-122.806;2023-03-01T15:09:52;10.85;;;9.73;;
50853;SDS011;44154;45.506;-122.806;2023-03-01T15:14:53;12.27;;;11.13;;
50853;SDS011;44154;45.506;-122.806;2023-03-01T15:17:26;9.98;;;7.93;;
50853;SDS011;44154;45.506;-122.806;2023-03-01T15:19:54;8.13;;;7.38;;
50853;SDS011;44154;45.506;-122.806;2023-03-01T15:22:21;8.45;;;7.47;;
50853;SDS011;44154;45.506;-122.806;2023-03-01T15:24:48;11.75;;;10.55;;
50853;SDS011;44154;45.506;-122.806;2023-03-01T15:27:16;12.75;;;10.90;;
50853;SDS011;44154;45.506;-122.806;2023-03-01T15:29:54;12.25;;;11.13;;
50853;SDS011;44154;45.506;-122.806;2023-03-01T15:32:34;14.35;;;10.93;;
50853;SDS011;44154;45.506;-122.806;2023-03-01T15:41:00;13.50;;;9.52;;
50853;SDS011;44154;45.506;-122.806;2023-03-01T15:43:46;8.40;;;7.50;;
50853;SDS011;44154;45.506;-122.806;2023-03-01T15:46:15;7.97;;;7.13;;
50853;SDS011;44154;45.506;-122.806;2023-03-01T15:48:48;7.63;;;6.40;;
50853;SDS011;44154;45.506;-122.806;2023-03-01T15:51:17;9.35;;;8.45;;
50853;SDS011;44154;45.506;-122.806;2023-03-01T15:53:54;8.68;;;7.80;;
50853;SDS011;44154;45.506;-122.806;2023-03-01T15:56:23;7.90;;;7.10;;
50853;SDS011;44154;45.506;-122.806;2023-03-01T15:58:49;10.60;;;8.98;;
50853;SDS011;44154;45.506;-122.806;2023-03-01T16:01:16;9.40;;;8.50;;
50853;SDS011;44154;45.506;-122.806;2023-03-01T16:03:43;12.15;;;9.40;;
50853;SDS011;44154;45.506;-122.806;2023-03-01T16:06:10;11.02;;;8.23;;
50853;SDS011;44154;45.506;-122.806;2023-03-01T16:08:37;9.63;;;7.40;;
50853;SDS011;44154;45.506;-122.806;2023-03-01T16:11:04;7.97;;;7.00;;
50853;SDS011;44154;45.506;-122.806;2023-03-01T16:13:36;6.78;;;5.95;;
50853;SDS011;44154;45.506;-122.806;2023-03-01T16:16:02;8.23;;;7.40;;
50853;SDS011;44154;45.506;-122.806;2023-03-01T16:18:29;10.57;;;9.48;;
50853;SDS011;44154;45.506;-122.806;2023-03-01T16:20:55;9.55;;;8.55;;
50853;SDS011;44154;45.506;-122.806;2023-03-01T16:23:21;8.73;;;7.93;;
50853;SDS011;44154;45.506;-122.806;2023-03-01T16:25:50;9.75;;;8.77;;
50853;SDS011;44154;45.506;-122.806;2023-03-01T16:28:16;10.23;;;8.85;;
50853;SDS011;44154;45.506;-122.806;2023-03-01T16:30:45;9.68;;;8.68;;
50853;SDS011;44154;45.506;-122.806;2023-03-01T16:33:16;9.02;;;7.43;;
50853;SDS011;44154;45.506;-122.806;2023-03-01T16:35:42;6.82;;;6.13;;
50853;SDS011;44154;45.506;-122.806;2023-03-01T16:38:09;6.13;;;5.45;;
50853;SDS011;44154;45.506;-122.806;2023-03-01T16:40:36;6.65;;;6.05;;
50853;SDS011;44154;45.506;-122.806;2023-03-01T16:43:02;8.35;;;7.47;;
50853;SDS011;44154;45.506;-122.806;2023-03-01T16:45:32;8.02;;;7.22;;